createdAt,value
2023-04-02T00:01:39.899Z,993.5
2023-04-02T00:07:29.709Z,993.6
2023-04-02T00:13:23.399Z,993.68
2023-04-02T00:19:09.698Z,993.79
2023-04-02T00:24:55.848Z,993.81
2023-04-02T00:30:45.037Z,993.82
2023-04-02T00:36:31.294Z,993.87
2023-04-02T00:42:16.202Z,993.95
2023-04-02T00:48:01.441Z,994.01
2023-04-02T00:53:46.306Z,994.05
2023-04-02T00:59:32.384Z,994.16
2023-04-02T01:05:25.317Z,994.21
2023-04-02T01:11:15.625Z,994.26
2023-04-02T01:17:04.752Z,994.43
2023-04-02T01:22:52.909Z,994.51
2023-04-02T01:28:37.082Z,994.59
2023-04-02T01:34:24.489Z,994.61
2023-04-02T01:40:19.743Z,994.75
2023-04-02T01:46:06.191Z,994.86
2023-04-02T01:51:51.946Z,994.93
2023-04-02T01:57:36.121Z,995.05
2023-04-02T02:03:20.682Z,995.11
2023-04-02T02:09:05.739Z,995.23
2023-04-02T02:14:52.988Z,995.29
2023-04-02T02:20:37.001Z,995.37
2023-04-02T02:26:21.628Z,995.5
2023-04-02T02:32:07.448Z,995.54
2023-04-02T02:37:53.718Z,995.63
2023-04-02T02:43:40.966Z,995.79
2023-04-02T02:49:27.110Z,995.87
2023-04-02T02:55:13.365Z,996.01
2023-04-02T03:00:57.522Z,996.02
2023-04-02T03:06:41.929Z,996.13
2023-04-02T03:12:36.104Z,996.24
2023-04-02T03:18:25.086Z,996.35
2023-04-02T03:24:13.519Z,996.46
2023-04-02T03:30:02.115Z,996.54
2023-04-02T03:35:48.758Z,996.69
2023-04-02T03:41:35.895Z,996.82
2023-04-02T03:47:21.851Z,996.88
2023-04-02T03:53:06.363Z,996.97
2023-04-02T03:58:53.346Z,997.14
2023-04-02T04:04:41.426Z,997.16
2023-04-02T04:10:27.173Z,997.25
2023-04-02T04:16:13.253Z,997.35
2023-04-02T04:22:02.226Z,997.39
2023-04-02T04:27:51.849Z,997.58
2023-04-02T04:33:40.047Z,997.64
2023-04-02T04:39:26.434Z,997.69
2023-04-02T04:45:14.755Z,997.8
2023-04-02T04:51:00.902Z,997.9
2023-04-02T04:56:46.795Z,998.05
2023-04-02T05:02:35.121Z,998.26
2023-04-02T05:08:21.802Z,998.42
2023-04-02T05:14:07.888Z,998.57
2023-04-02T05:19:54.281Z,998.65
2023-04-02T05:25:39.285Z,998.73
2023-04-02T05:31:25.603Z,998.81
2023-04-02T05:37:14.673Z,998.95
2023-04-02T05:43:00.074Z,999.02
2023-04-02T05:48:45.341Z,999.1
2023-04-02T05:54:31.861Z,999.16
2023-04-02T06:00:20.108Z,999.26
2023-04-02T06:06:07.649Z,999.4
2023-04-02T06:11:53.874Z,999.55
2023-04-02T06:17:42.934Z,999.59
2023-04-02T06:23:29.880Z,999.67
2023-04-02T06:29:18.739Z,999.77
2023-04-02T06:35:02.910Z,999.88
2023-04-02T06:40:49.769Z,999.98
2023-04-02T06:46:36.871Z,1000.03
2023-04-02T06:52:24.289Z,1000.13
2023-04-02T06:58:09.876Z,1000.31
2023-04-02T07:03:54.062Z,1000.44
2023-04-02T07:09:38.050Z,1000.54
2023-04-02T07:15:22.399Z,1000.67
2023-04-02T07:21:07.072Z,1000.78
2023-04-02T07:26:51.065Z,1000.94
2023-04-02T07:32:35.216Z,1000.97
2023-04-02T07:38:19.385Z,1001.12
2023-04-02T07:44:05.060Z,1001.24
2023-04-02T07:49:49.359Z,1001.32
2023-04-02T07:55:33.465Z,1001.38
2023-04-02T08:01:20.309Z,1001.52
2023-04-02T08:07:04.335Z,1001.66
2023-04-02T08:12:48.588Z,1001.68
2023-04-02T08:18:32.648Z,1001.78
2023-04-02T08:24:16.646Z,1001.95
2023-04-02T08:30:00.947Z,1002.09
2023-04-02T08:35:45.093Z,1002.19
2023-04-02T08:41:29.335Z,1002.31
2023-04-02T08:47:15.313Z,1002.44
2023-04-02T08:52:59.835Z,1002.51
2023-04-02T08:58:45.626Z,1002.54
2023-04-02T09:04:29.803Z,1002.61
2023-04-02T09:10:17.646Z,1002.72
2023-04-02T09:16:04.856Z,1002.77
2023-04-02T09:21:53.585Z,1002.86
2023-04-02T09:27:37.778Z,1003.08
2023-04-02T09:33:26.891Z,1003.16
2023-04-02T09:39:15.994Z,1003.29
2023-04-02T09:45:06.784Z,1003.4
2023-04-02T09:50:51.057Z,1003.54
2023-04-02T09:56:36.609Z,1003.5
2023-04-02T10:02:30.597Z,1003.57
2023-04-02T10:08:19.786Z,1003.75
2023-04-02T10:14:05.791Z,1003.78
2023-04-02T10:19:52.082Z,1003.85
2023-04-02T10:25:41.121Z,1003.94
2023-04-02T10:31:27.229Z,1004.13
2023-04-02T10:37:19.638Z,1004.16
2023-04-02T10:43:09.337Z,1004.2
2023-04-02T10:48:58.311Z,1004.33
2023-04-02T10:54:45.954Z,1004.48
2023-04-02T11:00:31.436Z,1004.46
2023-04-02T11:06:20.155Z,1004.56
2023-04-02T11:12:06.816Z,1004.68
2023-04-02T11:17:51.120Z,1004.86
2023-04-02T11:23:36.355Z,1004.9
2023-04-02T11:29:22.430Z,1004.9
2023-04-02T11:35:20.382Z,1004.96
2023-04-02T11:41:04.503Z,1005.1
2023-04-02T11:46:48.996Z,1005.13
2023-04-02T11:52:35.177Z,1005.12
2023-04-02T11:58:39.174Z,1005.22
2023-04-02T12:04:38.570Z,1005.33
2023-04-02T12:10:25.299Z,1005.48
2023-04-02T12:16:10.415Z,1005.63
2023-04-02T12:21:54.445Z,1005.7
2023-04-02T12:27:38.438Z,1005.63
2023-04-02T12:33:30.054Z,1005.67
2023-04-02T12:39:18.113Z,1005.75
2023-04-02T12:45:02.553Z,1005.73
2023-04-02T12:50:46.765Z,1005.84
2023-04-02T12:56:30.961Z,1005.96
2023-04-02T13:02:21.753Z,1006.02
2023-04-02T13:08:17.003Z,1006.07
2023-04-02T13:14:02.480Z,1006.14
2023-04-02T13:19:46.651Z,1006.17
2023-04-02T13:25:33.105Z,1006.14
2023-04-02T13:31:18.990Z,1006.2
2023-04-02T13:37:03.398Z,1006.37
2023-04-02T13:42:57.170Z,1006.42
2023-04-02T13:48:41.659Z,1006.46
2023-04-02T13:54:29.906Z,1006.54
2023-04-02T14:00:14.851Z,1006.58
2023-04-02T14:06:03.627Z,1006.62
2023-04-02T14:11:52.927Z,1006.66
2023-04-02T14:17:43.097Z,1006.67
2023-04-02T14:23:35.873Z,1006.7
2023-04-02T14:29:25.591Z,1006.81
2023-04-02T14:35:16.827Z,1006.86
2023-04-02T14:41:05.519Z,1006.94
2023-04-02T14:46:51.099Z,1007.06
2023-04-02T14:52:36.154Z,1007.1
2023-04-02T14:58:24.277Z,1007.15
2023-04-02T15:04:12.022Z,1007.27
2023-04-02T15:10:01.330Z,1007.38
2023-04-02T15:15:47.334Z,1007.4
2023-04-02T15:21:55.558Z,1007.39
2023-04-02T15:27:50.477Z,1007.5
2023-04-02T15:33:41.427Z,1007.51
2023-04-02T15:39:42.565Z,1007.49
2023-04-02T15:45:30.437Z,1007.52
2023-04-02T15:51:21.279Z,1007.6
2023-04-02T15:57:12.303Z,1007.63
2023-04-02T16:03:10.091Z,1007.68
2023-04-02T16:09:03.154Z,1007.78
2023-04-02T16:14:48.432Z,1007.86
2023-04-02T16:20:35.520Z,1007.92
2023-04-02T16:26:30.688Z,1007.95
2023-04-02T16:32:19.950Z,1007.98
2023-04-02T16:38:09.779Z,1008.18
2023-04-02T16:43:59.538Z,1008.27
2023-04-02T16:49:48.555Z,1008.35
2023-04-02T16:55:37.752Z,1008.45
2023-04-02T17:01:26.458Z,1008.59
2023-04-02T17:07:11.818Z,1008.69
2023-04-02T17:13:00.111Z,1008.85
2023-04-02T17:18:47.271Z,1008.91
2023-04-02T17:24:32.995Z,1009.03
2023-04-02T17:30:19.605Z,1009.01
2023-04-02T17:36:10.657Z,1009.08
2023-04-02T17:41:59.637Z,1009.14
2023-04-02T17:47:48.614Z,1009.22
2023-04-02T17:53:44.360Z,1009.29
2023-04-02T17:59:35.761Z,1009.37
2023-04-02T18:05:25.022Z,1009.5
2023-04-02T18:11:12.742Z,1009.55
2023-04-02T18:17:01.872Z,1009.62
2023-04-02T18:22:50.584Z,1009.67
2023-04-02T18:28:48.680Z,1009.71
2023-04-02T18:34:44.832Z,1009.81
2023-04-02T18:40:35.962Z,1009.87
2023-04-02T18:46:23.395Z,1009.87
2023-04-02T18:52:12.375Z,1009.96
2023-04-02T18:57:58.315Z,1010.13
2023-04-02T19:03:45.284Z,1010.16
2023-04-02T19:09:32.758Z,1010.21
2023-04-02T19:15:20.261Z,1010.33
2023-04-02T19:21:11.020Z,1010.38
2023-04-02T19:26:59.825Z,1010.48
2023-04-02T19:32:49.205Z,1010.47
2023-04-02T19:38:42.878Z,1010.53
2023-04-02T19:44:28.118Z,1010.57
2023-04-02T19:50:12.652Z,1010.55
2023-04-02T19:55:56.692Z,1010.59
2023-04-02T20:01:40.683Z,1010.67
2023-04-02T20:07:24.734Z,1010.68
2023-04-02T20:13:09.106Z,1010.72
2023-04-02T20:18:53.656Z,1010.73
2023-04-02T20:24:37.818Z,1010.74
2023-04-02T20:30:22.004Z,1010.8
2023-04-02T20:36:08.034Z,1010.85
2023-04-02T20:41:52.128Z,1010.91
2023-04-02T20:47:36.605Z,1011
2023-04-02T20:53:21.893Z,1011.09
2023-04-02T20:59:05.962Z,1011.15
2023-04-02T21:04:50.198Z,1011.15
2023-04-02T21:10:34.622Z,1011.13
2023-04-02T21:16:19.979Z,1011.2
2023-04-02T21:22:04.208Z,1011.25
2023-04-02T21:27:48.395Z,1011.3
2023-04-02T21:33:32.846Z,1011.37
2023-04-02T21:39:17.610Z,1011.37
2023-04-02T21:45:01.617Z,1011.4
2023-04-02T21:50:45.670Z,1011.38
2023-04-02T21:56:30.487Z,1011.36
2023-04-02T22:02:14.502Z,1011.32
2023-04-02T22:07:58.606Z,1011.4
2023-04-02T22:13:42.951Z,1011.41
2023-04-02T22:19:27.148Z,1011.45
2023-04-02T22:25:11.503Z,1011.45
2023-04-02T22:30:56.056Z,1011.55
2023-04-02T22:36:40.222Z,1011.57
2023-04-02T22:42:24.204Z,1011.57
2023-04-02T22:48:08.271Z,1011.56
2023-04-02T22:53:53.917Z,1011.53
2023-04-02T22:59:37.841Z,1011.5
2023-04-02T23:05:23.144Z,1011.53
2023-04-02T23:11:08.051Z,1011.47
2023-04-02T23:16:51.937Z,1011.44
2023-04-02T23:22:35.887Z,1011.43
2023-04-02T23:28:19.882Z,1011.42
2023-04-02T23:34:04.386Z,1011.39
2023-04-02T23:39:48.466Z,1011.44
2023-04-02T23:45:32.688Z,1011.48
2023-04-02T23:51:16.962Z,1011.51
2023-04-02T23:57:01.013Z,1011.56
